createdAt,value
2023-07-08T15:06:20.205Z,2868.00
2023-07-08T15:07:20.151Z,2816.00
2023-07-08T15:08:20.121Z,2836.00
2023-07-08T15:09:20.077Z,2812.00
2023-07-08T15:10:20.058Z,2544.00
2023-07-08T15:11:20.017Z,2688.00
2023-07-08T15:12:19.972Z,2316.00
2023-07-08T15:13:19.950Z,2044.00
2023-07-08T15:15:19.872Z,2060.00
2023-07-08T15:16:19.837Z,2184.00
2023-07-08T15:21:34.937Z,2596.00
2023-07-08T15:22:34.875Z,2608.00
2023-07-08T15:23:34.857Z,2552.00
2023-07-08T15:27:01.424Z,2300.00
2023-07-08T15:32:58.971Z,2532.00
2023-07-08T15:33:58.885Z,2512.00
2023-07-08T15:34:58.853Z,2416.00
2023-07-08T15:35:58.816Z,2492.00
2023-07-08T15:36:58.818Z,2548.00
2023-07-08T15:37:58.752Z,2360.00
2023-07-08T15:40:02.222Z,2260.00
2023-07-08T15:43:28.933Z,2016.00
2023-07-08T15:44:28.683Z,2088.00
2023-07-08T15:45:28.649Z,2020.00
2023-07-08T15:47:28.629Z,2056.00
2023-07-08T15:48:28.547Z,2108.00
2023-07-08T15:49:28.543Z,2104.00
2023-07-08T15:50:28.483Z,2012.00
2023-07-08T15:51:32.282Z,2004.00
2023-07-08T15:52:28.434Z,1880.00
2023-07-08T15:53:28.378Z,1944.00
2023-07-08T15:54:28.346Z,1848.00
2023-07-08T15:55:28.310Z,1752.00
2023-07-08T15:56:28.285Z,1808.00
2023-07-08T15:57:28.255Z,1768.00
2023-07-08T15:58:28.210Z,1720.00
2023-07-08T15:59:28.173Z,1724.00
2023-07-08T16:02:26.809Z,1732.00
2023-07-08T16:03:25.126Z,1776.00
2023-07-08T16:04:24.910Z,1848.00
2023-07-08T16:05:24.854Z,1900.00
2023-07-08T16:06:24.823Z,2012.00
2023-07-08T16:07:24.789Z,2076.00
2023-07-08T16:08:26.380Z,2096.00
2023-07-08T16:09:24.722Z,2132.00
2023-07-08T16:10:24.687Z,2108.00
2023-07-08T16:11:24.652Z,2048.00
2023-07-08T16:12:24.622Z,2092.00
2023-07-08T16:13:27.413Z,2120.00
2023-07-08T16:14:27.214Z,2124.00
2023-07-08T16:15:24.529Z,2132.00
2023-07-08T16:16:24.560Z,2160.00
2023-07-08T16:17:24.471Z,2192.00
2023-07-08T16:18:24.415Z,2244.00
2023-07-08T16:20:24.357Z,2308.00
2023-07-08T16:21:24.317Z,2336.00
2023-07-08T16:22:24.279Z,2332.00
2023-07-08T16:23:24.241Z,2344.00
2023-07-08T16:24:24.230Z,2356.00
2023-07-08T16:26:27.605Z,2204.00
2023-07-08T16:27:27.557Z,2096.00
2023-07-08T16:28:27.534Z,1972.00
2023-07-08T16:29:27.487Z,1924.00
2023-07-08T16:30:27.458Z,1884.00
2023-07-08T16:31:27.433Z,2100.00
2023-07-08T16:34:59.012Z,2344.00
2023-07-08T16:35:58.989Z,2360.00
2023-07-08T16:36:58.949Z,2456.00
2023-07-08T16:37:58.910Z,2532.00
2023-07-08T16:38:59.225Z,2648.00
2023-07-08T16:39:58.897Z,2716.00
2023-07-08T16:40:59.118Z,2740.00
2023-07-08T16:41:58.786Z,2776.00
2023-07-08T16:42:58.724Z,2692.00
2023-07-08T16:43:58.726Z,2776.00
2023-07-08T16:44:58.676Z,2852.00
2023-07-08T16:45:58.636Z,2856.00
2023-07-08T16:46:58.811Z,2864.00
2023-07-08T16:47:58.563Z,2888.00
2023-07-08T16:48:58.513Z,2900.00
2023-07-08T16:49:58.544Z,2828.00
2023-07-08T16:50:58.686Z,2760.00
2023-07-08T16:51:58.409Z,2668.00
2023-07-08T17:29:33.817Z,35840.00
2023-07-08T17:30:33.763Z,38144.00
2023-07-08T17:31:46.070Z,27104.00
2023-07-08T17:32:33.776Z,13320.00
2023-07-08T17:33:33.670Z,30784.00
2023-07-08T17:34:33.628Z,6056.00
2023-07-08T17:35:33.585Z,9948.00
2023-07-08T17:36:33.570Z,7468.00
2023-07-08T17:37:33.512Z,15040.00
2023-07-08T17:38:33.480Z,23520.00
2023-07-08T17:39:33.444Z,20608.00
2023-07-08T17:40:33.412Z,23584.00
2023-07-08T17:41:33.383Z,21472.00
2023-07-08T17:42:33.350Z,11540.00
2023-07-08T17:43:33.307Z,5104.00
2023-07-08T17:44:33.287Z,2872.00
2023-07-08T17:45:33.262Z,2484.00
2023-07-08T17:46:33.239Z,2180.00
2023-07-08T17:47:33.219Z,2028.00
2023-07-08T17:49:33.103Z,1788.00
2023-07-08T17:50:33.069Z,1772.00
2023-07-08T17:51:33.033Z,1656.00
2023-07-08T17:52:33.001Z,1588.00
2023-07-08T17:53:32.965Z,1644.00
2023-07-08T17:54:32.967Z,1616.00
2023-07-08T17:55:32.907Z,1508.00
2023-07-08T17:56:32.857Z,1476.00
2023-07-08T17:57:32.837Z,1480.00
2023-07-08T17:58:32.792Z,1444.00
2023-07-08T17:59:32.758Z,1400.00
2023-07-08T18:00:32.726Z,1364.00
2023-07-08T18:01:32.753Z,1356.00
2023-07-08T18:02:32.713Z,1336.00
2023-07-08T18:03:32.659Z,1292.00
2023-07-08T18:04:32.581Z,1232.00
